This is the latest recevied weather packets stored in our database for station/object BMCB-9. If no packets are shown the sender has not sent any weather packets the latest 10 day(s).
| Time | Temp. | Humidity | Pressure | Rain* | Wind** | Luminosity | Snow |
|---|---|---|---|---|---|---|---|
| 1778014257 | 10° C | 97% | 1008.8 hPa | 1.27 mm | - | 0 W/m² | - |
| 1778010059 | 10° C | 98% | 1008.5 hPa | 1.02 mm | - | 0 W/m² | - |
| 1777989057 | 10.56° C | 97% | 1008.9 hPa | 0 mm | - | 52 W/m² | - |
| 1777984856 | 11.11° C | 97% | 1009.4 hPa | 0 mm | - | 68 W/m² | - |
| 1777982456 | 11.67° C | 97% | 1009.4 hPa | 0 mm | - | 82 W/m² | - |
| 1777979456 | 11.67° C | 96% | 1009.6 hPa | 0 mm | - | 68 W/m² | - |
| 1777975857 | 11.67° C | 98% | 1009.7 hPa | 0 mm | - | 130 W/m² | - |
| 1777974655 | 11.67° C | 99% | 1009.8 hPa | 0 mm | - | 98 W/m² | - |
| 1777969257 | 11.67° C | 98% | 1010 hPa | 0 mm | - | 34 W/m² | - |
| 1777968055 | 11.67° C | 98% | 1009.9 hPa | 0 mm | - | 20 W/m² | - |
| 1777952455 | 11.67° C | 99% | 1010.2 hPa | 0 mm | - | 0 W/m² | - |
| 1777951855 | 11.67° C | 99% | 1010.2 hPa | 0 mm | - | 0 W/m² | - |
| 1777950655 | 11.67° C | 99% | 1010.4 hPa | 0 mm | - | 0 W/m² | - |
| 1777948258 | 11.67° C | 99% | 1010.7 hPa | 0 mm | - | 0 W/m² | - |
| 1777944653 | 11.67° C | 99% | 1010.6 hPa | 0 mm | - | 0 W/m² | - |
| 1777940454 | 11.67° C | 99% | 1011.2 hPa | 0 mm | - | 0 W/m² | - |
| 1777938657 | 11.11° C | 99% | 1011.5 hPa | 0 mm | - | 0 W/m² | - |
| 1777935058 | 11.11° C | 98% | 1011.8 hPa | 0 mm | - | 0 W/m² | - |
| 1777930259 | 11.67° C | 98% | 1012.4 hPa | 0 mm | - | 0 W/m² | - |
| 1777929059 | 12.22° C | 97% | 1012.5 hPa | 0 mm | - | 0 W/m² | - |
| 1777927260 | 12.22° C | 97% | 1012.6 hPa | 0 mm | - | 0 W/m² | - |
| 1777924259 | 12.78° C | 96% | 1012.4 hPa | 0 mm | - | 0 W/m² | - |
| 1777921861 | 13.33° C | 94% | 1012.1 hPa | 0 mm | - | 0 W/m² | - |
| 1777918858 | 14.44° C | 88% | 1011.9 hPa | 0 mm | - | 18 W/m² | - |
| 1777914658 | 14.44° C | 90% | 1012 hPa | 0.25 mm | - | 78 W/m² | - |
* Rain latest hour (hover to see other rain measurements)
** Current wind speed in m/s (hover to see current wind gust speed)